sensor_id;sensor_type;location;lat;lon;timestamp;P1;durP1;ratioP1;P2;durP2;ratioP2
45077;SDS011;60508;42.622;25.416;2023-09-07T00:02:24;7.47;;;5.03;;
45077;SDS011;60508;42.622;25.416;2023-09-07T00:04:59;12.80;;;5.35;;
45077;SDS011;60508;42.622;25.416;2023-09-07T00:07:26;7.03;;;5.75;;
45077;SDS011;60508;42.622;25.416;2023-09-07T00:09:53;6.55;;;5.28;;
45077;SDS011;60508;42.622;25.416;2023-09-07T00:12:20;8.68;;;4.82;;
45077;SDS011;60508;42.622;25.416;2023-09-07T00:14:46;5.93;;;4.40;;
45077;SDS011;60508;42.622;25.416;2023-09-07T00:17:13;5.43;;;4.93;;
45077;SDS011;60508;42.622;25.416;2023-09-07T00:19:40;12.57;;;5.07;;
45077;SDS011;60508;42.622;25.416;2023-09-07T00:22:07;10.45;;;5.30;;
45077;SDS011;60508;42.622;25.416;2023-09-07T00:24:33;10.98;;;5.63;;
45077;SDS011;60508;42.622;25.416;2023-09-07T00:27:10;6.72;;;5.25;;
45077;SDS011;60508;42.622;25.416;2023-09-07T00:29:38;9.93;;;4.97;;
45077;SDS011;60508;42.622;25.416;2023-09-07T00:32:05;7.28;;;5.07;;
45077;SDS011;60508;42.622;25.416;2023-09-07T00:34:32;9.52;;;4.80;;
45077;SDS011;60508;42.622;25.416;2023-09-07T00:37:12;12.95;;;5.00;;
45077;SDS011;60508;42.622;25.416;2023-09-07T00:39:39;6.13;;;4.97;;
45077;SDS011;60508;42.622;25.416;2023-09-07T00:42:06;8.75;;;4.32;;
45077;SDS011;60508;42.622;25.416;2023-09-07T00:44:32;13.80;;;4.90;;
45077;SDS011;60508;42.622;25.416;2023-09-07T00:46:59;5.28;;;4.38;;
45077;SDS011;60508;42.622;25.416;2023-09-07T00:49:27;11.20;;;6.07;;
45077;SDS011;60508;42.622;25.416;2023-09-07T00:51:54;6.45;;;4.97;;
45077;SDS011;60508;42.622;25.416;2023-09-07T00:54:21;14.80;;;4.82;;
45077;SDS011;60508;42.622;25.416;2023-09-07T00:56:49;6.45;;;4.13;;
45077;SDS011;60508;42.622;25.416;2023-09-07T00:59:16;7.93;;;5.20;;
45077;SDS011;60508;42.622;25.416;2023-09-07T01:01:43;6.43;;;4.50;;
45077;SDS011;60508;42.622;25.416;2023-09-07T01:04:19;8.02;;;5.10;;
45077;SDS011;60508;42.622;25.416;2023-09-07T01:06:47;6.05;;;4.70;;
45077;SDS011;60508;42.622;25.416;2023-09-07T01:09:23;14.45;;;4.95;;
45077;SDS011;60508;42.622;25.416;2023-09-07T01:12:03;6.93;;;4.72;;
45077;SDS011;60508;42.622;25.416;2023-09-07T01:14:30;9.65;;;4.28;;
45077;SDS011;60508;42.622;25.416;2023-09-07T01:16:56;4.90;;;4.30;;
45077;SDS011;60508;42.622;25.416;2023-09-07T01:19:23;6.93;;;5.32;;
45077;SDS011;60508;42.622;25.416;2023-09-07T01:21:50;7.57;;;4.88;;
45077;SDS011;60508;42.622;25.416;2023-09-07T01:24:18;5.97;;;5.38;;
45077;SDS011;60508;42.622;25.416;2023-09-07T01:26:45;8.27;;;4.70;;
45077;SDS011;60508;42.622;25.416;2023-09-07T01:29:25;15.55;;;5.07;;
45077;SDS011;60508;42.622;25.416;2023-09-07T01:31:55;9.48;;;5.50;;
45077;SDS011;60508;42.622;25.416;2023-09-07T01:34:23;8.07;;;4.55;;
45077;SDS011;60508;42.622;25.416;2023-09-07T01:36:50;10.00;;;4.63;;
45077;SDS011;60508;42.622;25.416;2023-09-07T01:39:27;5.47;;;4.45;;
45077;SDS011;60508;42.622;25.416;2023-09-07T01:41:54;6.57;;;4.50;;
45077;SDS011;60508;42.622;25.416;2023-09-07T01:44:21;7.53;;;4.72;;
45077;SDS011;60508;42.622;25.416;2023-09-07T01:46:58;7.57;;;4.28;;
45077;SDS011;60508;42.622;25.416;2023-09-07T01:49:25;12.70;;;5.38;;
45077;SDS011;60508;42.622;25.416;2023-09-07T01:51:51;10.85;;;5.13;;
45077;SDS011;60508;42.622;25.416;2023-09-07T01:54:20;11.68;;;5.43;;
45077;SDS011;60508;42.622;25.416;2023-09-07T01:57:00;13.43;;;5.75;;
45077;SDS011;60508;42.622;25.416;2023-09-07T01:59:26;9.40;;;5.05;;
45077;SDS011;60508;42.622;25.416;2023-09-07T02:01:54;11.05;;;4.80;;
45077;SDS011;60508;42.622;25.416;2023-09-07T02:04:20;5.00;;;4.20;;
45077;SDS011;60508;42.622;25.416;2023-09-07T02:06:47;5.53;;;4.32;;
45077;SDS011;60508;42.622;25.416;2023-09-07T02:09:31;5.70;;;5.03;;
45077;SDS011;60508;42.622;25.416;2023-09-07T02:11:58;5.78;;;4.75;;
45077;SDS011;60508;42.622;25.416;2023-09-07T02:14:25;12.05;;;4.78;;
45077;SDS011;60508;42.622;25.416;2023-09-07T02:16:52;14.75;;;5.18;;
45077;SDS011;60508;42.622;25.416;2023-09-07T02:19:19;7.88;;;4.78;;
45077;SDS011;60508;42.622;25.416;2023-09-07T02:21:49;7.57;;;5.53;;
45077;SDS011;60508;42.622;25.416;2023-09-07T02:24:17;8.03;;;4.30;;
45077;SDS011;60508;42.622;25.416;2023-09-07T02:26:44;5.70;;;4.05;;
45077;SDS011;60508;42.622;25.416;2023-09-07T02:29:14;5.13;;;4.60;;
45077;SDS011;60508;42.622;25.416;2023-09-07T02:31:52;6.47;;;4.43;;
45077;SDS011;60508;42.622;25.416;2023-09-07T02:34:20;6.53;;;4.67;;
45077;SDS011;60508;42.622;25.416;2023-09-07T02:36:46;4.93;;;4.43;;
45077;SDS011;60508;42.622;25.416;2023-09-07T02:39:13;7.47;;;4.10;;
45077;SDS011;60508;42.622;25.416;2023-09-07T02:41:41;7.95;;;4.47;;
45077;SDS011;60508;42.622;25.416;2023-09-07T02:44:07;8.00;;;5.22;;
45077;SDS011;60508;42.622;25.416;2023-09-07T02:46:44;5.13;;;4.22;;
45077;SDS011;60508;42.622;25.416;2023-09-07T02:49:11;6.30;;;5.53;;
45077;SDS011;60508;42.622;25.416;2023-09-07T02:51:38;6.15;;;4.75;;
45077;SDS011;60508;42.622;25.416;2023-09-07T02:54:04;11.40;;;4.63;;
45077;SDS011;60508;42.622;25.416;2023-09-07T02:56:42;7.25;;;5.00;;
45077;SDS011;60508;42.622;25.416;2023-09-07T02:59:09;7.10;;;5.88;;
45077;SDS011;60508;42.622;25.416;2023-09-07T03:01:37;8.25;;;4.53;;
45077;SDS011;60508;42.622;25.416;2023-09-07T03:04:05;14.43;;;4.60;;
45077;SDS011;60508;42.622;25.416;2023-09-07T03:06:33;8.70;;;6.70;;
45077;SDS011;60508;42.622;25.416;2023-09-07T03:09:00;13.57;;;6.38;;
45077;SDS011;60508;42.622;25.416;2023-09-07T03:11:26;8.15;;;6.10;;
45077;SDS011;60508;42.622;25.416;2023-09-07T03:14:05;9.30;;;5.93;;
45077;SDS011;60508;42.622;25.416;2023-09-07T03:16:31;10.63;;;5.30;;
45077;SDS011;60508;42.622;25.416;2023-09-07T03:18:58;13.18;;;7.97;;
45077;SDS011;60508;42.622;25.416;2023-09-07T03:21:34;12.55;;;6.60;;
45077;SDS011;60508;42.622;25.416;2023-09-07T03:24:01;7.28;;;5.47;;
45077;SDS011;60508;42.622;25.416;2023-09-07T03:26:29;9.75;;;7.03;;
45077;SDS011;60508;42.622;25.416;2023-09-07T03:28:55;13.40;;;5.75;;
45077;SDS011;60508;42.622;25.416;2023-09-07T03:31:32;13.23;;;7.65;;
45077;SDS011;60508;42.622;25.416;2023-09-07T03:33:58;10.63;;;6.38;;
45077;SDS011;60508;42.622;25.416;2023-09-07T03:36:25;9.80;;;6.60;;
45077;SDS011;60508;42.622;25.416;2023-09-07T03:39:00;7.18;;;6.20;;
45077;SDS011;60508;42.622;25.416;2023-09-07T03:41:27;14.13;;;5.90;;
45077;SDS011;60508;42.622;25.416;2023-09-07T03:43:57;7.75;;;6.32;;
45077;SDS011;60508;42.622;25.416;2023-09-07T03:46:33;8.38;;;5.43;;
45077;SDS011;60508;42.622;25.416;2023-09-07T03:49:00;13.90;;;6.28;;
45077;SDS011;60508;42.622;25.416;2023-09-07T03:51:26;12.18;;;6.07;;
45077;SDS011;60508;42.622;25.416;2023-09-07T03:53:53;7.07;;;6.07;;
45077;SDS011;60508;42.622;25.416;2023-09-07T03:56:20;11.23;;;6.20;;
45077;SDS011;60508;42.622;25.416;2023-09-07T03:58:54;8.10;;;6.20;;
45077;SDS011;60508;42.622;25.416;2023-09-07T04:01:20;15.68;;;5.93;;
45077;SDS011;60508;42.622;25.416;2023-09-07T04:03:47;8.43;;;5.63;;
45077;SDS011;60508;42.622;25.416;2023-09-07T04:06:24;10.35;;;6.28;;
45077;SDS011;60508;42.622;25.416;2023-09-07T04:08:51;11.23;;;5.82;;
45077;SDS011;60508;42.622;25.416;2023-09-07T04:11:17;7.50;;;5.47;;
45077;SDS011;60508;42.622;25.416;2023-09-07T04:13:44;7.20;;;5.50;;
45077;SDS011;60508;42.622;25.416;2023-09-07T04:16:20;9.23;;;6.03;;
45077;SDS011;60508;42.622;25.416;2023-09-07T04:18:47;15.02;;;5.57;;
45077;SDS011;60508;42.622;25.416;2023-09-07T04:21:13;6.88;;;5.43;;
45077;SDS011;60508;42.622;25.416;2023-09-07T04:23:50;12.18;;;6.70;;
45077;SDS011;60508;42.622;25.416;2023-09-07T04:26:17;6.50;;;5.85;;
45077;SDS011;60508;42.622;25.416;2023-09-07T04:28:43;6.43;;;5.35;;
45077;SDS011;60508;42.622;25.416;2023-09-07T04:31:10;12.20;;;5.22;;
45077;SDS011;60508;42.622;25.416;2023-09-07T04:33:38;7.22;;;4.65;;
45077;SDS011;60508;42.622;25.416;2023-09-07T04:36:14;10.57;;;5.18;;
45077;SDS011;60508;42.622;25.416;2023-09-07T04:38:44;9.55;;;5.40;;
45077;SDS011;60508;42.622;25.416;2023-09-07T04:41:12;5.57;;;4.97;;
45077;SDS011;60508;42.622;25.416;2023-09-07T04:43:49;6.82;;;5.22;;
45077;SDS011;60508;42.622;25.416;2023-09-07T04:46:16;10.02;;;4.82;;
45077;SDS011;60508;42.622;25.416;2023-09-07T04:48:44;8.10;;;5.47;;
45077;SDS011;60508;42.622;25.416;2023-09-07T04:51:10;6.43;;;5.03;;
45077;SDS011;60508;42.622;25.416;2023-09-07T04:53:47;9.38;;;5.18;;
45077;SDS011;60508;42.622;25.416;2023-09-07T04:56:14;11.50;;;5.20;;
45077;SDS011;60508;42.622;25.416;2023-09-07T04:58:42;11.18;;;4.65;;
45077;SDS011;60508;42.622;25.416;2023-09-07T05:01:09;7.28;;;4.57;;
45077;SDS011;60508;42.622;25.416;2023-09-07T05:03:38;5.65;;;4.20;;
45077;SDS011;60508;42.622;25.416;2023-09-07T05:06:11;5.07;;;4.00;;
45077;SDS011;60508;42.622;25.416;2023-09-07T05:08:49;14.05;;;4.70;;
45077;SDS011;60508;42.622;25.416;2023-09-07T05:11:16;7.32;;;6.05;;
45077;SDS011;60508;42.622;25.416;2023-09-07T05:13:42;6.50;;;5.20;;
45077;SDS011;60508;42.622;25.416;2023-09-07T05:16:09;10.13;;;5.32;;
45077;SDS011;60508;42.622;25.416;2023-09-07T05:18:37;10.23;;;4.28;;
45077;SDS011;60508;42.622;25.416;2023-09-07T05:21:11;6.47;;;5.00;;
45077;SDS011;60508;42.622;25.416;2023-09-07T05:23:42;8.98;;;5.78;;
45077;SDS011;60508;42.622;25.416;2023-09-07T05:26:09;21.42;;;7.93;;
45077;SDS011;60508;42.622;25.416;2023-09-07T05:28:36;19.98;;;6.22;;
45077;SDS011;60508;42.622;25.416;2023-09-07T05:31:03;15.27;;;6.30;;
45077;SDS011;60508;42.622;25.416;2023-09-07T05:33:40;23.20;;;6.55;;
45077;SDS011;60508;42.622;25.416;2023-09-07T05:36:07;22.02;;;6.57;;
45077;SDS011;60508;42.622;25.416;2023-09-07T05:38:34;28.75;;;7.85;;
45077;SDS011;60508;42.622;25.416;2023-09-07T05:41:01;15.15;;;6.05;;
45077;SDS011;60508;42.622;25.416;2023-09-07T05:43:28;21.48;;;7.13;;
45077;SDS011;60508;42.622;25.416;2023-09-07T05:46:05;12.75;;;7.00;;
45077;SDS011;60508;42.622;25.416;2023-09-07T05:48:32;10.10;;;6.97;;
45077;SDS011;60508;42.622;25.416;2023-09-07T05:50:59;12.95;;;7.28;;
45077;SDS011;60508;42.622;25.416;2023-09-07T05:53:26;15.50;;;9.10;;
45077;SDS011;60508;42.622;25.416;2023-09-07T05:55:53;15.65;;;8.25;;
45077;SDS011;60508;42.622;25.416;2023-09-07T05:58:20;8.00;;;5.97;;
45077;SDS011;60508;42.622;25.416;2023-09-07T06:00:47;8.00;;;5.60;;
45077;SDS011;60508;42.622;25.416;2023-09-07T06:03:14;14.57;;;7.22;;
45077;SDS011;60508;42.622;25.416;2023-09-07T06:05:49;28.08;;;8.23;;
45077;SDS011;60508;42.622;25.416;2023-09-07T06:08:17;10.30;;;6.47;;
45077;SDS011;60508;42.622;25.416;2023-09-07T06:10:44;17.40;;;8.48;;
45077;SDS011;60508;42.622;25.416;2023-09-07T06:13:17;13.07;;;7.00;;
45077;SDS011;60508;42.622;25.416;2023-09-07T06:15:44;12.18;;;6.70;;
45077;SDS011;60508;42.622;25.416;2023-09-07T06:18:11;13.00;;;7.10;;
45077;SDS011;60508;42.622;25.416;2023-09-07T06:20:38;9.18;;;5.47;;
45077;SDS011;60508;42.622;25.416;2023-09-07T06:23:10;6.78;;;4.70;;
45077;SDS011;60508;42.622;25.416;2023-09-07T06:25:36;7.65;;;5.10;;
45077;SDS011;60508;42.622;25.416;2023-09-07T06:28:03;8.15;;;5.18;;
45077;SDS011;60508;42.622;25.416;2023-09-07T06:30:39;5.70;;;4.95;;
45077;SDS011;60508;42.622;25.416;2023-09-07T06:33:06;8.55;;;4.68;;
45077;SDS011;60508;42.622;25.416;2023-09-07T06:35:33;15.93;;;6.60;;
45077;SDS011;60508;42.622;25.416;2023-09-07T06:38:00;7.28;;;4.75;;
45077;SDS011;60508;42.622;25.416;2023-09-07T06:40:26;9.50;;;5.05;;
45077;SDS011;60508;42.622;25.416;2023-09-07T06:42:55;14.88;;;4.63;;
45077;SDS011;60508;42.622;25.416;2023-09-07T06:45:25;10.60;;;6.47;;
45077;SDS011;60508;42.622;25.416;2023-09-07T06:47:52;8.85;;;5.32;;
45077;SDS011;60508;42.622;25.416;2023-09-07T06:50:21;8.52;;;5.82;;
45077;SDS011;60508;42.622;25.416;2023-09-07T06:52:58;12.60;;;4.40;;
45077;SDS011;60508;42.622;25.416;2023-09-07T06:55:26;17.17;;;5.03;;
45077;SDS011;60508;42.622;25.416;2023-09-07T06:57:53;15.85;;;6.15;;
45077;SDS011;60508;42.622;25.416;2023-09-07T07:00:29;14.40;;;4.30;;
45077;SDS011;60508;42.622;25.416;2023-09-07T07:02:57;8.85;;;4.15;;
45077;SDS011;60508;42.622;25.416;2023-09-07T07:05:24;11.20;;;4.90;;
45077;SDS011;60508;42.622;25.416;2023-09-07T07:08:01;11.68;;;4.32;;
45077;SDS011;60508;42.622;25.416;2023-09-07T07:10:28;10.55;;;5.07;;
45077;SDS011;60508;42.622;25.416;2023-09-07T07:12:56;6.07;;;4.05;;
45077;SDS011;60508;42.622;25.416;2023-09-07T07:15:33;7.55;;;3.42;;
45077;SDS011;60508;42.622;25.416;2023-09-07T07:18:02;7.55;;;3.95;;
45077;SDS011;60508;42.622;25.416;2023-09-07T07:20:35;10.23;;;3.53;;
45077;SDS011;60508;42.622;25.416;2023-09-07T07:23:04;9.60;;;3.95;;
45077;SDS011;60508;42.622;25.416;2023-09-07T07:25:34;5.40;;;3.17;;
45077;SDS011;60508;42.622;25.416;2023-09-07T07:28:01;4.40;;;3.10;;
45077;SDS011;60508;42.622;25.416;2023-09-07T07:30:45;5.38;;;3.72;;
45077;SDS011;60508;42.622;25.416;2023-09-07T07:35:42;4.57;;;2.70;;
45077;SDS011;60508;42.622;25.416;2023-09-07T07:38:09;7.60;;;3.88;;
45077;SDS011;60508;42.622;25.416;2023-09-07T07:40:37;6.30;;;3.35;;
45077;SDS011;60508;42.622;25.416;2023-09-07T07:43:13;5.93;;;3.30;;
45077;SDS011;60508;42.622;25.416;2023-09-07T07:45:41;8.10;;;3.08;;
45077;SDS011;60508;42.622;25.416;2023-09-07T07:48:08;7.82;;;3.53;;
45077;SDS011;60508;42.622;25.416;2023-09-07T07:50:46;5.95;;;2.83;;
45077;SDS011;60508;42.622;25.416;2023-09-07T07:53:15;6.00;;;2.97;;
45077;SDS011;60508;42.622;25.416;2023-09-07T07:55:42;12.77;;;3.60;;
45077;SDS011;60508;42.622;25.416;2023-09-07T07:58:13;7.55;;;4.07;;
45077;SDS011;60508;42.622;25.416;2023-09-07T08:00:41;2.70;;;2.50;;
45077;SDS011;60508;42.622;25.416;2023-09-07T08:03:11;10.35;;;3.25;;
45077;SDS011;60508;42.622;25.416;2023-09-07T08:05:38;7.25;;;3.47;;
45077;SDS011;60508;42.622;25.416;2023-09-07T08:08:07;7.95;;;2.88;;
45077;SDS011;60508;42.622;25.416;2023-09-07T08:13:13;3.63;;;2.63;;
45077;SDS011;60508;42.622;25.416;2023-09-07T08:15:41;6.30;;;3.20;;
45077;SDS011;60508;42.622;25.416;2023-09-07T08:18:13;3.58;;;3.22;;
45077;SDS011;60508;42.622;25.416;2023-09-07T08:20:40;6.13;;;2.72;;
45077;SDS011;60508;42.622;25.416;2023-09-07T08:23:08;5.30;;;2.33;;
45077;SDS011;60508;42.622;25.416;2023-09-07T08:25:50;6.70;;;2.50;;
45077;SDS011;60508;42.622;25.416;2023-09-07T08:28:22;7.03;;;2.60;;
45077;SDS011;60508;42.622;25.416;2023-09-07T08:30:50;3.92;;;2.40;;
45077;SDS011;60508;42.622;25.416;2023-09-07T08:33:30;12.95;;;3.25;;
45077;SDS011;60508;42.622;25.416;2023-09-07T08:35:59;6.70;;;3.28;;
45077;SDS011;60508;42.622;25.416;2023-09-07T08:38:27;11.05;;;2.80;;
45077;SDS011;60508;42.622;25.416;2023-09-07T08:41:04;6.93;;;2.25;;
45077;SDS011;60508;42.622;25.416;2023-09-07T08:43:35;6.35;;;2.45;;
45077;SDS011;60508;42.622;25.416;2023-09-07T08:46:15;6.18;;;2.33;;
45077;SDS011;60508;42.622;25.416;2023-09-07T08:48:55;3.95;;;2.92;;
45077;SDS011;60508;42.622;25.416;2023-09-07T08:51:26;6.72;;;2.20;;
45077;SDS011;60508;42.622;25.416;2023-09-07T08:53:54;6.18;;;2.28;;
45077;SDS011;60508;42.622;25.416;2023-09-07T08:56:32;5.43;;;2.80;;
45077;SDS011;60508;42.622;25.416;2023-09-07T08:58:59;7.22;;;3.10;;
45077;SDS011;60508;42.622;25.416;2023-09-07T09:01:26;6.07;;;2.75;;
45077;SDS011;60508;42.622;25.416;2023-09-07T09:04:06;3.47;;;2.28;;
45077;SDS011;60508;42.622;25.416;2023-09-07T09:06:33;4.15;;;3.03;;
45077;SDS011;60508;42.622;25.416;2023-09-07T09:09:00;4.78;;;3.10;;
45077;SDS011;60508;42.622;25.416;2023-09-07T09:11:38;4.43;;;2.55;;
45077;SDS011;60508;42.622;25.416;2023-09-07T09:14:05;5.75;;;3.05;;
45077;SDS011;60508;42.622;25.416;2023-09-07T09:16:33;5.13;;;2.42;;
45077;SDS011;60508;42.622;25.416;2023-09-07T09:18:59;11.25;;;3.97;;
45077;SDS011;60508;42.622;25.416;2023-09-07T09:21:26;6.25;;;2.67;;
45077;SDS011;60508;42.622;25.416;2023-09-07T09:23:54;5.18;;;2.95;;
45077;SDS011;60508;42.622;25.416;2023-09-07T09:26:22;6.90;;;2.40;;
45077;SDS011;60508;42.622;25.416;2023-09-07T09:28:59;8.57;;;2.65;;
45077;SDS011;60508;42.622;25.416;2023-09-07T09:31:26;8.02;;;2.80;;
45077;SDS011;60508;42.622;25.416;2023-09-07T09:33:53;8.05;;;2.83;;
45077;SDS011;60508;42.622;25.416;2023-09-07T09:36:21;9.20;;;2.78;;
45077;SDS011;60508;42.622;25.416;2023-09-07T09:38:50;6.00;;;2.80;;
45077;SDS011;60508;42.622;25.416;2023-09-07T09:41:19;8.13;;;3.35;;
45077;SDS011;60508;42.622;25.416;2023-09-07T09:43:47;4.10;;;2.75;;
45077;SDS011;60508;42.622;25.416;2023-09-07T09:46:15;4.00;;;2.30;;
45077;SDS011;60508;42.622;25.416;2023-09-07T09:48:43;4.55;;;2.53;;
45077;SDS011;60508;42.622;25.416;2023-09-07T09:51:10;14.65;;;2.83;;
45077;SDS011;60508;42.622;25.416;2023-09-07T09:53:48;5.47;;;3.40;;
45077;SDS011;60508;42.622;25.416;2023-09-07T09:56:15;6.97;;;2.47;;
45077;SDS011;60508;42.622;25.416;2023-09-07T09:58:43;25.70;;;8.57;;
45077;SDS011;60508;42.622;25.416;2023-09-07T10:01:10;9.05;;;2.78;;
45077;SDS011;60508;42.622;25.416;2023-09-07T10:03:46;17.15;;;4.80;;
45077;SDS011;60508;42.622;25.416;2023-09-07T10:06:19;3.83;;;2.75;;
45077;SDS011;60508;42.622;25.416;2023-09-07T10:08:58;4.88;;;3.25;;
45077;SDS011;60508;42.622;25.416;2023-09-07T10:11:38;6.05;;;3.05;;
45077;SDS011;60508;42.622;25.416;2023-09-07T10:14:06;4.32;;;3.88;;
45077;SDS011;60508;42.622;25.416;2023-09-07T10:16:43;3.08;;;2.50;;
45077;SDS011;60508;42.622;25.416;2023-09-07T10:21:42;5.22;;;3.10;;
45077;SDS011;60508;42.622;25.416;2023-09-07T10:24:09;7.95;;;2.85;;
45077;SDS011;60508;42.622;25.416;2023-09-07T10:26:55;9.50;;;2.75;;
45077;SDS011;60508;42.622;25.416;2023-09-07T10:29:26;4.20;;;3.38;;
45077;SDS011;60508;42.622;25.416;2023-09-07T10:31:54;6.43;;;3.45;;
45077;SDS011;60508;42.622;25.416;2023-09-07T10:34:21;13.55;;;4.53;;
45077;SDS011;60508;42.622;25.416;2023-09-07T10:36:48;7.00;;;2.63;;
45077;SDS011;60508;42.622;25.416;2023-09-07T10:39:31;4.03;;;3.03;;
45077;SDS011;60508;42.622;25.416;2023-09-07T10:41:58;4.43;;;2.80;;
45077;SDS011;60508;42.622;25.416;2023-09-07T10:44:29;6.45;;;3.08;;
45077;SDS011;60508;42.622;25.416;2023-09-07T10:46:59;4.47;;;2.85;;
45077;SDS011;60508;42.622;25.416;2023-09-07T10:49:26;4.38;;;3.72;;
45077;SDS011;60508;42.622;25.416;2023-09-07T10:52:04;7.90;;;2.78;;
45077;SDS011;60508;42.622;25.416;2023-09-07T10:54:31;2.47;;;2.28;;
45077;SDS011;60508;42.622;25.416;2023-09-07T10:56:58;9.85;;;3.20;;
45077;SDS011;60508;42.622;25.416;2023-09-07T10:59:34;3.95;;;3.10;;
45077;SDS011;60508;42.622;25.416;2023-09-07T11:02:11;3.75;;;3.35;;
45077;SDS011;60508;42.622;25.416;2023-09-07T11:04:38;7.88;;;3.55;;
45077;SDS011;60508;42.622;25.416;2023-09-07T11:07:05;6.30;;;3.20;;
45077;SDS011;60508;42.622;25.416;2023-09-07T11:09:43;5.88;;;2.90;;
45077;SDS011;60508;42.622;25.416;2023-09-07T11:12:13;5.47;;;3.70;;
45077;SDS011;60508;42.622;25.416;2023-09-07T11:14:42;7.47;;;3.40;;
45077;SDS011;60508;42.622;25.416;2023-09-07T11:17:25;4.93;;;3.28;;
45077;SDS011;60508;42.622;25.416;2023-09-07T11:19:53;8.93;;;3.00;;
45077;SDS011;60508;42.622;25.416;2023-09-07T11:22:21;8.80;;;3.58;;
45077;SDS011;60508;42.622;25.416;2023-09-07T11:24:48;8.33;;;3.30;;
45077;SDS011;60508;42.622;25.416;2023-09-07T11:27:18;3.40;;;3.10;;
45077;SDS011;60508;42.622;25.416;2023-09-07T11:29:53;7.75;;;3.78;;
45077;SDS011;60508;42.622;25.416;2023-09-07T11:32:23;10.25;;;3.90;;
45077;SDS011;60508;42.622;25.416;2023-09-07T11:34:51;6.25;;;3.08;;
45077;SDS011;60508;42.622;25.416;2023-09-07T11:37:23;10.15;;;3.47;;
45077;SDS011;60508;42.622;25.416;2023-09-07T11:39:51;4.43;;;3.50;;
45077;SDS011;60508;42.622;25.416;2023-09-07T11:42:18;6.47;;;4.00;;
45077;SDS011;60508;42.622;25.416;2023-09-07T11:44:45;7.72;;;4.18;;
45077;SDS011;60508;42.622;25.416;2023-09-07T11:47:11;7.72;;;3.00;;
45077;SDS011;60508;42.622;25.416;2023-09-07T11:49:46;5.88;;;3.00;;
45077;SDS011;60508;42.622;25.416;2023-09-07T11:54:41;10.40;;;3.65;;
45077;SDS011;60508;42.622;25.416;2023-09-07T11:57:08;6.55;;;3.42;;
45077;SDS011;60508;42.622;25.416;2023-09-07T11:59:35;6.38;;;3.63;;
45077;SDS011;60508;42.622;25.416;2023-09-07T12:02:12;9.32;;;2.92;;
45077;SDS011;60508;42.622;25.416;2023-09-07T12:07:08;5.45;;;3.05;;
45077;SDS011;60508;42.622;25.416;2023-09-07T12:09:35;4.97;;;3.67;;
45077;SDS011;60508;42.622;25.416;2023-09-07T12:12:11;5.53;;;3.42;;
45077;SDS011;60508;42.622;25.416;2023-09-07T12:14:38;8.50;;;3.22;;
45077;SDS011;60508;42.622;25.416;2023-09-07T12:17:05;5.03;;;3.33;;
45077;SDS011;60508;42.622;25.416;2023-09-07T12:19:36;9.10;;;3.28;;
45077;SDS011;60508;42.622;25.416;2023-09-07T12:22:03;8.27;;;3.47;;
45077;SDS011;60508;42.622;25.416;2023-09-07T12:24:30;4.47;;;3.38;;
45077;SDS011;60508;42.622;25.416;2023-09-07T12:26:56;5.47;;;3.78;;
45077;SDS011;60508;42.622;25.416;2023-09-07T12:29:32;6.68;;;3.30;;
45077;SDS011;60508;42.622;25.416;2023-09-07T12:31:59;6.25;;;3.35;;
45077;SDS011;60508;42.622;25.416;2023-09-07T12:34:25;6.78;;;3.10;;
45077;SDS011;60508;42.622;25.416;2023-09-07T12:36:52;3.42;;;3.10;;
45077;SDS011;60508;42.622;25.416;2023-09-07T12:39:20;7.07;;;3.40;;
45077;SDS011;60508;42.622;25.416;2023-09-07T12:41:47;5.47;;;2.90;;
45077;SDS011;60508;42.622;25.416;2023-09-07T12:44:13;3.70;;;2.90;;
45077;SDS011;60508;42.622;25.416;2023-09-07T12:46:49;4.38;;;3.15;;
45077;SDS011;60508;42.622;25.416;2023-09-07T12:49:16;5.65;;;2.97;;
45077;SDS011;60508;42.622;25.416;2023-09-07T12:51:45;6.20;;;2.92;;
45077;SDS011;60508;42.622;25.416;2023-09-07T12:54:20;5.57;;;2.75;;
45077;SDS011;60508;42.622;25.416;2023-09-07T12:56:47;11.13;;;3.40;;
45077;SDS011;60508;42.622;25.416;2023-09-07T12:59:14;5.78;;;3.30;;
45077;SDS011;60508;42.622;25.416;2023-09-07T13:01:49;5.60;;;2.78;;
45077;SDS011;60508;42.622;25.416;2023-09-07T13:04:17;4.95;;;3.20;;
45077;SDS011;60508;42.622;25.416;2023-09-07T13:06:43;5.05;;;3.05;;
45077;SDS011;60508;42.622;25.416;2023-09-07T13:09:17;5.57;;;3.67;;
45077;SDS011;60508;42.622;25.416;2023-09-07T13:11:45;4.45;;;2.92;;
45077;SDS011;60508;42.622;25.416;2023-09-07T13:14:11;9.10;;;3.10;;
45077;SDS011;60508;42.622;25.416;2023-09-07T13:16:38;5.82;;;3.10;;
45077;SDS011;60508;42.622;25.416;2023-09-07T13:19:04;3.72;;;3.08;;
45077;SDS011;60508;42.622;25.416;2023-09-07T13:21:42;6.00;;;3.07;;
45077;SDS011;60508;42.622;25.416;2023-09-07T13:24:09;5.22;;;2.67;;
45077;SDS011;60508;42.622;25.416;2023-09-07T13:26:36;5.25;;;2.78;;
45077;SDS011;60508;42.622;25.416;2023-09-07T13:29:11;3.72;;;3.25;;
45077;SDS011;60508;42.622;25.416;2023-09-07T13:31:38;7.65;;;2.70;;
45077;SDS011;60508;42.622;25.416;2023-09-07T13:34:04;7.30;;;2.72;;
45077;SDS011;60508;42.622;25.416;2023-09-07T13:39:32;5.95;;;3.00;;
45077;SDS011;60508;42.622;25.416;2023-09-07T13:41:59;5.93;;;2.60;;
45077;SDS011;60508;42.622;25.416;2023-09-07T13:44:26;3.53;;;2.10;;
45077;SDS011;60508;42.622;25.416;2023-09-07T13:46:52;2.97;;;2.67;;
45077;SDS011;60508;42.622;25.416;2023-09-07T13:49:32;5.47;;;2.88;;
45077;SDS011;60508;42.622;25.416;2023-09-07T13:51:58;3.92;;;2.83;;
45077;SDS011;60508;42.622;25.416;2023-09-07T13:54:25;6.60;;;3.45;;
45077;SDS011;60508;42.622;25.416;2023-09-07T13:57:00;4.10;;;2.78;;
45077;SDS011;60508;42.622;25.416;2023-09-07T13:59:27;27.08;;;3.63;;
45077;SDS011;60508;42.622;25.416;2023-09-07T14:01:58;5.60;;;3.05;;
45077;SDS011;60508;42.622;25.416;2023-09-07T14:04:25;5.15;;;2.85;;
45077;SDS011;60508;42.622;25.416;2023-09-07T14:07:01;6.13;;;4.47;;
45077;SDS011;60508;42.622;25.416;2023-09-07T14:09:27;7.07;;;3.28;;
45077;SDS011;60508;42.622;25.416;2023-09-07T14:11:54;4.70;;;3.03;;
45077;SDS011;60508;42.622;25.416;2023-09-07T14:14:32;6.97;;;3.28;;
45077;SDS011;60508;42.622;25.416;2023-09-07T14:17:02;4.68;;;3.50;;
45077;SDS011;60508;42.622;25.416;2023-09-07T14:19:29;4.53;;;3.70;;
45077;SDS011;60508;42.622;25.416;2023-09-07T14:21:59;5.22;;;3.45;;
45077;SDS011;60508;42.622;25.416;2023-09-07T14:24:26;4.30;;;3.33;;
45077;SDS011;60508;42.622;25.416;2023-09-07T14:26:52;4.45;;;3.15;;
45077;SDS011;60508;42.622;25.416;2023-09-07T14:29:28;3.60;;;3.28;;
45077;SDS011;60508;42.622;25.416;2023-09-07T14:31:55;10.25;;;2.90;;
45077;SDS011;60508;42.622;25.416;2023-09-07T14:34:22;8.63;;;3.50;;
45077;SDS011;60508;42.622;25.416;2023-09-07T14:36:59;6.35;;;3.72;;
45077;SDS011;60508;42.622;25.416;2023-09-07T14:39:25;8.98;;;6.43;;
45077;SDS011;60508;42.622;25.416;2023-09-07T14:41:52;14.75;;;4.70;;
45077;SDS011;60508;42.622;25.416;2023-09-07T14:44:19;9.45;;;4.97;;
45077;SDS011;60508;42.622;25.416;2023-09-07T14:47:00;6.30;;;5.40;;
45077;SDS011;60508;42.622;25.416;2023-09-07T14:49:27;7.22;;;4.57;;
45077;SDS011;60508;42.622;25.416;2023-09-07T14:51:54;10.80;;;5.55;;
45077;SDS011;60508;42.622;25.416;2023-09-07T14:54:20;8.30;;;4.00;;
45077;SDS011;60508;42.622;25.416;2023-09-07T14:56:56;12.15;;;9.35;;
45077;SDS011;60508;42.622;25.416;2023-09-07T14:59:24;7.53;;;4.67;;
45077;SDS011;60508;42.622;25.416;2023-09-07T15:01:51;7.40;;;5.75;;